Time;durP1;ratioP1;P1;durP2;ratioP2;P2;SDS_P1;SDS_P2;PMS_P1;PMS_P2;Temp;Humidity;BMP_temperature;BMP_pressure;BME280_temperature;BME280_humidity;BME280_pressure;Samples;Min_cycle;Max_cycle;Signal;HPM_P1;HPM_P2
2022/12/07 00:02:15;;;;;;;5.28;4.88;;;3.90;99.90;;;;;;5000159;28;20178;-74
2022/12/07 00:04:41;;;;;;;5.80;5.30;;;3.80;99.90;;;;;;5005562;28;20288;-73
2022/12/07 00:07:06;;;;;;;4.97;4.57;;;3.80;99.90;;;;;;5002756;28;20583;-73
2022/12/07 00:09:32;;;;;;;5.38;4.88;;;3.80;99.90;;;;;;5004510;28;20232;-73
2022/12/07 00:11:58;;;;;;;5.85;5.35;;;3.80;99.90;;;;;;5002901;28;20280;-73
2022/12/07 00:14:23;;;;;;;5.55;5.05;;;3.80;99.90;;;;;;5001925;28;20540;-72
2022/12/07 00:16:50;;;;;;;5.05;4.65;;;3.70;99.90;;;;;;5006240;28;20671;-73
2022/12/07 00:19:16;;;;;;;5.35;4.90;;;3.70;99.90;;;;;;5004395;28;20584;-73
2022/12/07 00:21:42;;;;;;;5.03;4.63;;;3.70;99.90;;;;;;5002461;28;20185;-73
2022/12/07 00:24:09;;;;;;;5.85;5.30;;;3.70;99.90;;;;;;5006677;28;20236;-73
2022/12/07 00:26:37;;;;;;;5.10;4.70;;;3.70;99.90;;;;;;5005451;28;20262;-73
2022/12/07 00:29:23;;;;;;;6.57;5.18;;;3.80;99.90;;;;;;5005245;28;20252;-73
2022/12/07 00:31:48;;;;;;;5.53;4.65;;;3.70;99.90;;;;;;5000856;28;20660;-73
2022/12/07 00:34:17;;;;;;;4.88;4.47;;;3.70;99.90;;;;;;4998774;28;20216;-74
2022/12/07 00:36:43;;;;;;;5.45;5.03;;;3.70;99.90;;;;;;5004397;28;20174;-73
2022/12/07 00:39:09;;;;;;;5.28;4.88;;;3.80;99.90;;;;;;5001078;28;20181;-73
2022/12/07 00:41:34;;;;;;;5.25;4.75;;;3.70;99.90;;;;;;5003498;28;20193;-73
2022/12/07 00:44:00;;;;;;;5.40;4.90;;;3.80;99.90;;;;;;4998864;28;20182;-73
2022/12/07 00:46:26;;;;;;;5.50;5.00;;;3.80;99.90;;;;;;4995080;28;20243;-73
2022/12/07 00:48:52;;;;;;;4.63;4.30;;;3.80;99.90;;;;;;5003658;28;20611;-73
2022/12/07 00:51:21;;;;;;;5.05;4.65;;;3.70;99.90;;;;;;4998251;28;20178;-73
2022/12/07 00:53:47;;;;;;;4.50;4.10;;;3.70;99.90;;;;;;5004923;28;20230;-74
2022/12/07 00:56:19;;;;;;;4.93;4.53;;;3.70;99.90;;;;;;5004189;28;20272;-74
2022/12/07 00:58:53;;;;;;;5.22;4.72;;;3.60;99.90;;;;;;5003770;28;20209;-74
2022/12/07 01:01:18;;;;;;;5.00;4.60;;;3.60;99.90;;;;;;5008642;28;20183;-73
2022/12/07 01:03:44;;;;;;;6.18;5.63;;;3.60;99.90;;;;;;5004888;28;20177;-74
2022/12/07 01:06:18;;;;;;;4.80;4.40;;;3.50;99.90;;;;;;5008120;28;20189;-72
2022/12/07 01:08:43;;;;;;;5.95;5.45;;;3.50;99.90;;;;;;5006286;28;20314;-72
2022/12/07 01:11:13;;;;;;;5.15;4.75;;;3.50;99.90;;;;;;5005206;28;20213;-73
2022/12/07 01:13:39;;;;;;;5.72;5.22;;;3.50;99.90;;;;;;5002101;28;20182;-75
2022/12/07 01:16:06;;;;;;;5.97;5.47;;;3.50;99.90;;;;;;5004682;28;20176;-75
2022/12/07 01:18:34;;;;;;;5.15;4.75;;;3.50;99.90;;;;;;5006380;28;20194;-72
2022/12/07 01:21:01;;;;;;;5.95;5.28;;;3.60;99.90;;;;;;5017925;28;20299;-73
2022/12/07 01:23:27;;;;;;;5.38;4.88;;;3.70;99.90;;;;;;5005797;28;20186;-73
2022/12/07 01:26:01;;;;;;;5.43;5.00;;;3.70;99.90;;;;;;5005130;28;20174;-73
2022/12/07 01:28:27;;;;;;;5.28;4.78;;;3.60;99.90;;;;;;5000479;28;20205;-73
2022/12/07 01:31:04;;;;;;;4.68;4.28;;;3.60;99.90;;;;;;5006792;28;20296;-73
2022/12/07 01:33:35;;;;;;;4.47;3.80;;;3.70;99.90;;;;;;5000513;28;20174;-73
2022/12/07 01:36:06;;;;;;;5.75;5.25;;;3.70;99.90;;;;;;5013335;28;20173;-72
2022/12/07 01:38:32;;;;;;;5.50;5.10;;;3.70;99.90;;;;;;5005784;28;20205;-74
2022/12/07 01:40:59;;;;;;;5.43;5.03;;;3.70;99.90;;;;;;5010074;28;20173;-73
2022/12/07 01:43:27;;;;;;;4.72;4.32;;;3.50;99.90;;;;;;5007362;28;20178;-72
2022/12/07 01:45:53;;;;;;;3.88;3.58;;;3.50;99.90;;;;;;5003654;28;20212;-72
2022/12/07 01:48:24;;;;;;;4.68;4.35;;;3.50;99.90;;;;;;5002937;28;20205;-72
2022/12/07 01:50:53;;;;;;;4.43;4.13;;;3.60;99.90;;;;;;5008796;28;20197;-71
2022/12/07 01:53:19;;;;;;;4.05;3.75;;;3.50;99.90;;;;;;5005099;28;20582;-73
2022/12/07 01:55:49;;;;;;;4.25;3.95;;;3.50;99.90;;;;;;5003280;28;20181;-74
2022/12/07 01:58:16;;;;;;;4.50;4.20;;;3.50;99.90;;;;;;5007732;28;20231;-74
2022/12/07 02:00:41;;;;;;;4.65;4.35;;;3.40;99.90;;;;;;5004026;28;20173;-75
2022/12/07 02:03:34;;;;;;;4.63;4.22;;;3.40;99.90;;;;;;5003505;28;20182;-74
2022/12/07 02:06:00;;;;;;;4.88;4.47;;;3.40;99.90;;;;;;5001024;28;20251;-74
2022/12/07 02:08:26;;;;;;;3.63;3.42;;;3.40;99.90;;;;;;5004466;28;20213;-70
2022/12/07 02:10:51;;;;;;;5.55;5.15;;;3.50;99.90;;;;;;5007063;28;20278;-75
2022/12/07 02:13:24;;;;;;;5.63;5.15;;;3.50;99.90;;;;;;5000334;28;20264;-75
2022/12/07 02:16:14;;;;;;;5.90;5.43;;;3.40;99.90;;;;;;4999953;28;20188;-74
2022/12/07 02:19:24;;;;;;;6.38;5.78;;;3.40;99.90;;;;;;4996820;28;20205;-75
2022/12/07 02:22:04;;;;;;;5.78;5.18;;;3.30;99.90;;;;;;4998374;28;20177;-75
2022/12/07 02:24:45;;;;;;;5.82;5.32;;;3.30;99.90;;;;;;5000280;28;20560;-73
2022/12/07 02:27:48;;;;;;;5.38;4.97;;;3.30;99.90;;;;;;4998037;28;20206;-73
2022/12/07 02:30:16;;;;;;;4.38;3.97;;;3.40;99.90;;;;;;4997586;28;20221;-72
2022/12/07 02:33:00;;;;;;;6.13;5.63;;;3.50;99.90;;;;;;5002315;28;20248;-73
2022/12/07 02:36:12;;;;;;;5.80;5.30;;;3.50;99.90;;;;;;4999410;28;20560;-73
2022/12/07 02:38:51;;;;;;;4.53;3.25;;;3.40;99.90;;;;;;4975787;28;20228;-73
2022/12/07 02:41:20;;;;;;;6.82;6.22;;;3.50;99.90;;;;;;5002161;28;20191;-73
2022/12/07 02:43:52;;;;;;;5.53;4.88;;;3.40;99.90;;;;;;5000013;28;20575;-73
2022/12/07 02:46:25;;;;;;;6.65;6.15;;;3.50;99.90;;;;;;5002649;28;20228;-73
2022/12/07 02:48:52;;;;;;;6.60;6.00;;;3.40;99.90;;;;;;5003913;28;20256;-72
2022/12/07 02:51:18;;;;;;;5.93;5.32;;;3.50;99.90;;;;;;5004907;28;20182;-72
2022/12/07 02:53:44;;;;;;;6.93;6.32;;;3.60;99.90;;;;;;5002456;28;20183;-72
2022/12/07 02:56:39;;;;;;;5.15;4.72;;;3.50;99.90;;;;;;5002859;28;20235;-72
2022/12/07 02:59:26;;;;;;;4.10;3.80;;;3.50;99.90;;;;;;5000391;28;20169;-72
2022/12/07 03:02:10;;;;;;;4.97;4.57;;;3.40;99.90;;;;;;5003072;28;20682;-73
2022/12/07 03:04:57;;;;;;;5.03;4.63;;;3.30;99.90;;;;;;5018653;28;20275;-73
2022/12/07 03:07:53;;;;;;;6.03;5.53;;;3.20;99.90;;;;;;5000862;28;20224;-74
2022/12/07 03:10:29;;;;;;;6.20;5.68;;;3.00;99.90;;;;;;5000518;28;20209;-72
2022/12/07 03:12:57;;;;;;;6.70;5.95;;;2.90;99.90;;;;;;5006164;28;20208;-74
2022/12/07 03:15:47;;;;;;;6.72;6.13;;;2.90;99.90;;;;;;5004133;28;20181;-72
2022/12/07 03:18:18;;;;;;;7.18;6.32;;;2.90;99.90;;;;;;5003560;28;20738;-72
2022/12/07 03:20:45;;;;;;;7.25;6.55;;;2.80;99.90;;;;;;5003056;28;20193;-72
2022/12/07 03:23:13;;;;;;;6.55;6.03;;;2.80;99.90;;;;;;5007206;28;20201;-72
2022/12/07 03:25:44;;;;;;;7.00;6.40;;;2.70;99.90;;;;;;5007908;28;20189;-72
2022/12/07 03:28:13;;;;;;;7.80;7.10;;;2.60;99.90;;;;;;5002932;28;20205;-72
2022/12/07 03:30:54;;;;;;;7.05;6.35;;;2.60;99.90;;;;;;5004067;28;20358;-73
2022/12/07 03:33:26;;;;;;;8.38;7.60;;;2.60;99.90;;;;;;5003562;28;20177;-73
2022/12/07 03:35:54;;;;;;;7.78;7.00;;;2.60;99.90;;;;;;5006210;28;20652;-73
2022/12/07 03:38:29;;;;;;;9.18;8.27;;;2.60;99.90;;;;;;5004347;28;20209;-73
2022/12/07 03:41:03;;;;;;;6.63;5.88;;;2.70;99.90;;;;;;5003358;28;20183;-73
2022/12/07 03:43:30;;;;;;;8.07;7.28;;;2.70;99.90;;;;;;5004365;28;20276;-73
2022/12/07 03:46:20;;;;;;;9.10;8.20;;;2.70;99.90;;;;;;5004670;28;20233;-74
2022/12/07 03:48:53;;;;;;;8.43;7.63;;;2.80;99.90;;;;;;4996447;28;20638;-74
2022/12/07 03:52:03;;;;;;;8.63;7.82;;;2.80;99.90;;;;;;5000015;28;20173;-74
2022/12/07 03:54:36;;;;;;;9.13;8.32;;;2.80;99.90;;;;;;4996795;28;20621;-74
2022/12/07 03:57:03;;;;;;;8.75;7.88;;;2.70;99.90;;;;;;5003051;28;20672;-74
2022/12/07 03:59:30;;;;;;;8.85;8.05;;;2.60;99.90;;;;;;5006999;28;20613;-74
2022/12/07 04:02:01;;;;;;;9.02;8.15;;;2.70;99.90;;;;;;5007596;28;20260;-74
2022/12/07 04:04:28;;;;;;;9.70;8.80;;;2.60;99.90;;;;;;5008094;28;20252;-73
2022/12/07 04:06:53;;;;;;;9.18;8.27;;;2.60;99.90;;;;;;5005328;28;20215;-73
2022/12/07 04:09:19;;;;;;;8.07;7.35;;;2.50;99.90;;;;;;4999822;28;20680;-73
2022/12/07 04:11:44;;;;;;;9.75;8.77;;;2.50;99.90;;;;;;5006263;28;20605;-73
2022/12/07 04:14:19;;;;;;;6.57;5.88;;;2.80;99.90;;;;;;5001223;28;20269;-74
2022/12/07 04:16:46;;;;;;;9.13;8.13;;;2.90;99.90;;;;;;5002471;28;20542;-73
2022/12/07 04:19:12;;;;;;;9.02;8.13;;;3.10;99.90;;;;;;5001364;28;20262;-74
2022/12/07 04:21:38;;;;;;;8.77;7.30;;;3.00;99.90;;;;;;4998261;28;20190;-73
2022/12/07 04:24:04;;;;;;;9.20;8.23;;;3.00;99.90;;;;;;5004491;28;20204;-74
2022/12/07 04:26:30;;;;;;;9.15;8.25;;;2.90;99.90;;;;;;5009698;28;20710;-73
2022/12/07 04:28:55;;;;;;;9.55;8.65;;;2.90;99.90;;;;;;5012167;28;20449;-73
2022/12/07 04:31:21;;;;;;;9.60;8.27;;;2.80;99.90;;;;;;5017789;28;20194;-73
2022/12/07 04:33:47;;;;;;;9.43;8.52;;;2.70;99.90;;;;;;5012354;28;20268;-73
2022/12/07 04:36:12;;;;;;;9.45;8.50;;;2.70;99.90;;;;;;5013119;28;20334;-73
2022/12/07 04:38:38;;;;;;;10.07;9.10;;;2.80;99.90;;;;;;5009420;28;20870;-73
2022/12/07 04:41:08;;;;;;;9.40;8.50;;;2.90;99.90;;;;;;5007486;28;20189;-73
2022/12/07 04:43:35;;;;;;;8.55;7.63;;;2.90;99.90;;;;;;5008655;28;20174;-74
2022/12/07 04:46:01;;;;;;;7.65;6.93;;;2.90;99.90;;;;;;5008757;28;20312;-73
2022/12/07 04:48:27;;;;;;;7.35;5.60;;;2.90;99.90;;;;;;5003606;28;20255;-73
2022/12/07 04:50:52;;;;;;;10.20;8.05;;;3.00;99.90;;;;;;5014588;28;20280;-73
2022/12/07 04:53:18;;;;;;;9.52;7.78;;;3.00;99.90;;;;;;5009385;28;20178;-74
2022/12/07 04:55:45;;;;;;;9.27;8.38;;;3.00;99.90;;;;;;5013288;28;20189;-74
2022/12/07 04:58:12;;;;;;;9.45;8.63;;;3.00;99.90;;;;;;5009620;28;20205;-74
2022/12/07 05:00:38;;;;;;;9.88;8.98;;;3.00;99.90;;;;;;5008509;28;20181;-73
2022/12/07 05:03:03;;;;;;;10.05;9.05;;;2.90;99.90;;;;;;5009135;28;20196;-72
2022/12/07 05:05:29;;;;;;;9.20;8.30;;;2.90;99.90;;;;;;5011293;28;20546;-74
2022/12/07 05:07:54;;;;;;;9.90;8.93;;;2.80;99.90;;;;;;5009252;28;20589;-74
2022/12/07 05:10:20;;;;;;;9.70;8.70;;;2.80;99.90;;;;;;5007667;28;20209;-73
2022/12/07 05:12:46;;;;;;;9.13;8.23;;;2.70;99.90;;;;;;5008236;28;20188;-74
2022/12/07 05:15:13;;;;;;;10.13;9.13;;;2.50;99.90;;;;;;5011959;28;20181;-73
2022/12/07 05:17:38;;;;;;;9.73;8.77;;;2.50;99.90;;;;;;5008197;28;20193;-73
2022/12/07 05:20:05;;;;;;;10.57;9.57;;;2.50;99.90;;;;;;5007620;28;20231;-73
2022/12/07 05:22:30;;;;;;;10.35;9.27;;;2.40;99.90;;;;;;5010295;28;20193;-73
2022/12/07 05:24:56;;;;;;;10.45;9.45;;;2.20;99.90;;;;;;5007915;28;20173;-73
2022/12/07 05:27:22;;;;;;;9.88;8.88;;;2.20;99.90;;;;;;5001264;28;20604;-73
2022/12/07 05:29:50;;;;;;;10.33;9.33;;;2.10;99.90;;;;;;5004577;28;20287;-74
2022/12/07 05:32:15;;;;;;;11.57;9.95;;;1.90;99.90;;;;;;5006255;28;20181;-74
2022/12/07 05:34:41;;;;;;;9.75;8.75;;;1.80;99.90;;;;;;5003127;28;20187;-73
2022/12/07 05:37:07;;;;;;;10.10;9.10;;;1.70;99.90;;;;;;5006509;28;20185;-74
2022/12/07 05:39:32;;;;;;;10.00;8.88;;;1.60;99.90;;;;;;5006689;28;20189;-74
2022/12/07 05:42:13;;;;;;;9.57;8.55;;;1.60;99.90;;;;;;5007719;28;20191;-73
2022/12/07 05:44:40;;;;;;;10.15;9.15;;;1.40;99.90;;;;;;5007567;28;20763;-73
2022/12/07 05:47:06;;;;;;;9.18;8.07;;;1.30;99.90;;;;;;5005776;28;20209;-73
2022/12/07 05:49:32;;;;;;;10.57;9.47;;;1.20;99.90;;;;;;5001708;28;20298;-72
2022/12/07 05:51:57;;;;;;;10.20;9.20;;;1.10;99.90;;;;;;5003086;28;20520;-72
2022/12/07 05:54:23;;;;;;;11.27;10.13;;;1.00;99.90;;;;;;5010487;28;20227;-71
2022/12/07 05:56:49;;;;;;;12.07;10.87;;;0.90;99.90;;;;;;5011850;28;20181;-72
2022/12/07 05:59:23;;;;;;;10.85;9.60;;;0.80;99.90;;;;;;5007453;28;20424;-72
2022/12/07 06:02:06;;;;;;;12.80;10.93;;;0.80;99.90;;;;;;5008534;28;20698;-72
2022/12/07 06:04:35;;;;;;;11.93;10.13;;;0.70;99.90;;;;;;5008560;28;20268;-72
2022/12/07 06:07:01;;;;;;;11.27;10.00;;;0.70;99.90;;;;;;5006595;28;20237;-73
2022/12/07 06:09:28;;;;;;;12.17;10.87;;;0.70;99.90;;;;;;5008248;28;20239;-70
2022/12/07 06:14:39;;;;;;;10.70;9.07;;;0.80;99.90;;;;;;5000341;28;20489;-71
2022/12/07 06:17:05;;;;;;;11.00;9.90;;;0.90;99.90;;;;;;5007713;28;20687;-70
2022/12/07 06:19:30;;;;;;;11.83;10.63;;;1.00;99.90;;;;;;5006813;28;20292;-70
2022/12/07 06:21:57;;;;;;;13.17;10.93;;;1.00;99.90;;;;;;4998449;28;20285;-70
2022/12/07 06:24:23;;;;;;;12.80;11.43;;;1.10;99.90;;;;;;5005388;28;20181;-71
2022/12/07 06:26:48;;;;;;;13.93;10.57;;;1.10;99.90;;;;;;5002871;28;20190;-68
2022/12/07 06:29:14;;;;;;;13.47;10.80;;;1.20;99.90;;;;;;5002676;28;20244;-69
2022/12/07 06:31:41;;;;;;;11.33;10.13;;;1.20;99.90;;;;;;5009325;28;20265;-69
2022/12/07 06:34:11;;;;;;;9.43;8.37;;;1.20;99.90;;;;;;4999029;28;20261;-70
2022/12/07 06:36:37;;;;;;;10.97;9.83;;;1.20;99.90;;;;;;5013314;28;20173;-71
2022/12/07 06:39:03;;;;;;;10.53;9.00;;;1.30;99.90;;;;;;5005944;28;20197;-69
2022/12/07 06:41:29;;;;;;;12.20;10.90;;;1.20;99.90;;;;;;5010334;28;20192;-71
2022/12/07 06:43:55;;;;;;;13.23;10.23;;;1.20;99.90;;;;;;5006135;28;20669;-71
2022/12/07 06:46:21;;;;;;;11.17;9.77;;;1.20;99.90;;;;;;5011074;28;20189;-69
2022/12/07 06:48:47;;;;;;;11.23;10.03;;;1.20;99.90;;;;;;5008636;28;20589;-70
2022/12/07 06:51:12;;;;;;;12.00;9.60;;;1.20;99.90;;;;;;5006055;28;20216;-70
2022/12/07 06:53:38;;;;;;;15.48;9.90;;;1.10;99.90;;;;;;5001578;28;20352;-68
2022/12/07 06:56:04;;;;;;;10.53;9.43;;;1.10;99.90;;;;;;5006639;28;20185;-70
2022/12/07 06:58:30;;;;;;;11.37;9.97;;;1.20;99.90;;;;;;5010214;28;20206;-72
2022/12/07 07:00:56;;;;;;;12.57;10.93;;;1.10;99.90;;;;;;5010481;28;20755;-73
2022/12/07 07:03:22;;;;;;;12.48;10.40;;;1.10;99.90;;;;;;5004564;28;20660;-70
2022/12/07 07:05:48;;;;;;;11.10;9.88;;;1.20;99.90;;;;;;5014010;28;20614;-70
2022/12/07 07:08:13;;;;;;;12.40;11.20;;;1.20;99.90;;;;;;5009757;28;20212;-69
2022/12/07 07:10:40;;;;;;;11.93;10.60;;;1.30;99.90;;;;;;5016000;28;20205;-67
2022/12/07 07:13:05;;;;;;;11.50;10.20;;;1.30;99.90;;;;;;5001730;28;20280;-70
2022/12/07 07:15:32;;;;;;;12.98;10.35;;;1.20;99.90;;;;;;5013776;28;20710;-69
2022/12/07 07:17:57;;;;;;;14.33;10.67;;;1.30;99.90;;;;;;5007829;28;20205;-69
2022/12/07 07:20:23;;;;;;;13.75;12.23;;;1.20;99.90;;;;;;5004339;28;20679;-73
2022/12/07 07:22:49;;;;;;;13.63;10.75;;;1.30;99.90;;;;;;5002015;28;20247;-68
2022/12/07 07:25:15;;;;;;;12.63;10.63;;;1.40;99.90;;;;;;5003107;28;20634;-69
2022/12/07 07:27:41;;;;;;;13.25;10.43;;;1.60;99.90;;;;;;5010732;28;20211;-70
2022/12/07 07:30:07;;;;;;;11.85;10.65;;;1.70;99.90;;;;;;5009997;28;20678;-71
2022/12/07 07:32:33;;;;;;;12.70;10.23;;;1.80;99.90;;;;;;5006743;28;20235;-71
2022/12/07 07:34:58;;;;;;;12.05;9.40;;;2.00;99.90;;;;;;5005388;28;20174;-71
2022/12/07 07:37:24;;;;;;;10.95;9.75;;;2.20;99.90;;;;;;5020014;28;20201;-70
2022/12/07 07:39:50;;;;;;;10.25;9.13;;;2.30;99.90;;;;;;5005054;28;20185;-70
2022/12/07 07:42:15;;;;;;;11.50;10.30;;;2.40;99.90;;;;;;5004600;28;20193;-69
2022/12/07 07:44:41;;;;;;;12.82;10.43;;;2.50;99.90;;;;;;5003098;28;20184;-69
2022/12/07 07:47:07;;;;;;;14.20;10.93;;;2.40;99.90;;;;;;4998074;28;20247;-71
2022/12/07 07:49:32;;;;;;;13.77;10.82;;;2.50;99.90;;;;;;5000973;28;20209;-71
2022/12/07 07:51:58;;;;;;;12.02;10.60;;;2.50;99.90;;;;;;5003284;28;20182;-72
2022/12/07 07:54:23;;;;;;;11.85;10.38;;;2.40;99.90;;;;;;5002330;28;20716;-73
2022/12/07 07:56:49;;;;;;;11.57;10.38;;;2.50;99.90;;;;;;5004376;28;20187;-72
2022/12/07 07:59:15;;;;;;;14.20;12.05;;;2.50;99.90;;;;;;5007073;28;20220;-72
2022/12/07 08:01:41;;;;;;;12.13;9.88;;;2.60;99.90;;;;;;4999552;28;20349;-72
2022/12/07 08:04:06;;;;;;;12.00;9.43;;;2.80;99.90;;;;;;4997886;28;20730;-71
2022/12/07 08:06:32;;;;;;;11.98;10.68;;;3.00;99.90;;;;;;5007844;28;20685;-73
2022/12/07 08:08:58;;;;;;;13.60;10.55;;;3.20;99.90;;;;;;5005602;28;20655;-74
2022/12/07 08:11:24;;;;;;;12.38;10.73;;;3.40;99.90;;;;;;5002679;28;20224;-73
2022/12/07 08:13:49;;;;;;;11.23;10.02;;;3.60;99.90;;;;;;5000636;28;20717;-72
2022/12/07 08:16:16;;;;;;;12.10;9.30;;;3.70;99.90;;;;;;4993401;28;20190;-72
2022/12/07 08:18:42;;;;;;;9.80;8.80;;;3.80;99.90;;;;;;5008192;28;20201;-72
2022/12/07 08:21:12;;;;;;;9.60;8.70;;;3.70;99.90;;;;;;5006480;28;20201;-72
2022/12/07 08:23:38;;;;;;;10.02;9.02;;;3.80;99.90;;;;;;4998282;28;20182;-72
2022/12/07 08:26:06;;;;;;;10.30;9.07;;;4.00;99.90;;;;;;5000149;28;20197;-72
2022/12/07 08:28:32;;;;;;;9.98;8.98;;;4.00;99.90;;;;;;5002580;28;20684;-72
2022/12/07 08:31:07;;;;;;;10.57;9.50;;;4.00;99.90;;;;;;5001800;28;20218;-72
2022/12/07 08:33:32;;;;;;;9.93;8.95;;;4.10;99.90;;;;;;4998870;28;20840;-72
2022/12/07 08:36:04;;;;;;;11.50;8.57;;;4.30;99.90;;;;;;5008374;28;20268;-71
2022/12/07 08:38:29;;;;;;;8.85;7.97;;;4.50;99.90;;;;;;5004202;28;20317;-73
2022/12/07 08:40:56;;;;;;;8.93;8.02;;;4.60;99.90;;;;;;5005705;28;20256;-73
2022/12/07 08:43:22;;;;;;;9.05;7.88;;;4.80;99.90;;;;;;4998430;28;20181;-73
2022/12/07 08:46:00;;;;;;;9.18;8.27;;;4.90;99.90;;;;;;4998126;28;20265;-72
2022/12/07 08:48:26;;;;;;;9.20;8.30;;;4.90;99.90;;;;;;4999164;28;20201;-72
2022/12/07 08:50:52;;;;;;;9.57;8.10;;;4.90;99.90;;;;;;5002821;28;20205;-72
2022/12/07 08:53:17;;;;;;;9.52;8.27;;;4.90;99.90;;;;;;5008460;28;20181;-72
2022/12/07 08:55:46;;;;;;;8.98;7.90;;;4.90;99.90;;;;;;5008039;28;20205;-72
2022/12/07 08:58:11;;;;;;;9.38;7.60;;;5.00;99.90;;;;;;5002231;28;20216;-72
2022/12/07 09:00:37;;;;;;;8.27;7.40;;;4.90;99.90;;;;;;4999784;28;20182;-75
2022/12/07 09:03:02;;;;;;;12.40;8.52;;;4.90;99.90;;;;;;5006798;28;20205;-75
2022/12/07 09:05:28;;;;;;;10.60;8.63;;;4.80;99.90;;;;;;5008207;28;20174;-74
2022/12/07 09:07:57;;;;;;;9.88;8.88;;;4.70;99.90;;;;;;5003353;28;20874;-73
2022/12/07 09:10:23;;;;;;;9.27;8.38;;;4.60;99.90;;;;;;5000964;28;20251;-73
2022/12/07 09:12:49;;;;;;;9.38;8.38;;;4.50;99.90;;;;;;5005667;28;20174;-73
2022/12/07 09:15:15;;;;;;;8.52;7.65;;;4.40;99.90;;;;;;5004065;28;20686;-73
2022/12/07 09:17:40;;;;;;;10.50;8.23;;;4.40;99.90;;;;;;5010041;28;20210;-73
2022/12/07 09:20:07;;;;;;;9.45;7.68;;;4.40;99.90;;;;;;5003017;28;20178;-73
2022/12/07 09:22:33;;;;;;;8.65;7.32;;;4.50;99.90;;;;;;5009239;28;20193;-73
2022/12/07 09:24:59;;;;;;;8.50;7.55;;;4.50;99.90;;;;;;5011212;28;20545;-73
2022/12/07 09:27:25;;;;;;;9.95;8.93;;;4.50;99.90;;;;;;5009534;28;20376;-72
2022/12/07 09:29:51;;;;;;;9.98;7.20;;;4.60;99.90;;;;;;5007933;28;20215;-74
2022/12/07 09:32:17;;;;;;;7.82;7.03;;;4.60;99.90;;;;;;5003402;28;20174;-73
2022/12/07 09:34:42;;;;;;;8.10;7.30;;;4.70;99.90;;;;;;5001910;28;20247;-72
2022/12/07 09:37:08;;;;;;;12.15;8.10;;;4.80;99.90;;;;;;5000700;28;20206;-72
2022/12/07 09:39:34;;;;;;;8.48;7.68;;;4.90;99.90;;;;;;5003009;28;20182;-72
2022/12/07 09:42:03;;;;;;;8.43;5.88;;;5.00;99.90;;;;;;4999648;28;20173;-72
2022/12/07 09:44:29;;;;;;;9.25;8.25;;;5.00;99.90;;;;;;5003743;28;20185;-71
2022/12/07 09:46:56;;;;;;;8.70;7.90;;;5.00;99.90;;;;;;5007883;28;20333;-72
2022/12/07 09:49:24;;;;;;;9.30;7.85;;;5.20;99.90;;;;;;5007976;28;20335;-73
2022/12/07 09:52:08;;;;;;;8.52;7.70;;;5.40;99.90;;;;;;5009365;28;20572;-72
2022/12/07 09:54:39;;;;;;;7.57;6.80;;;5.50;99.90;;;;;;5001658;28;20211;-73
2022/12/07 09:57:05;;;;;;;7.30;6.60;;;5.60;99.90;;;;;;5001237;28;20201;-74
2022/12/07 09:59:30;;;;;;;8.65;7.47;;;5.80;99.90;;;;;;5003577;28;20566;-73
2022/12/07 10:02:22;;;;;;;7.40;6.65;;;5.80;99.90;;;;;;5005144;28;20531;-72
2022/12/07 10:04:47;;;;;;;8.50;7.70;;;5.80;99.90;;;;;;5003930;28;20257;-72
2022/12/07 10:07:13;;;;;;;9.15;8.25;;;5.80;99.90;;;;;;5007400;28;20908;-72
2022/12/07 10:09:38;;;;;;;8.93;7.88;;;5.60;99.90;;;;;;5005280;28;20205;-72
2022/12/07 10:12:09;;;;;;;9.13;8.18;;;5.50;99.90;;;;;;5008662;28;20277;-72
2022/12/07 10:14:38;;;;;;;7.97;7.18;;;5.50;99.90;;;;;;5005456;28;20186;-72
2022/12/07 10:17:26;;;;;;;8.10;7.30;;;5.60;99.90;;;;;;4996748;28;20285;-72
2022/12/07 10:19:52;;;;;;;8.93;7.95;;;5.60;99.90;;;;;;5002593;28;20186;-73
2022/12/07 10:22:17;;;;;;;7.35;6.55;;;5.50;99.90;;;;;;4997361;28;20189;-72
2022/12/07 10:24:46;;;;;;;8.68;7.20;;;5.60;99.90;;;;;;5000830;28;20177;-72
2022/12/07 10:27:26;;;;;;;9.32;7.63;;;5.60;99.90;;;;;;5003234;28;20835;-72
2022/12/07 10:29:53;;;;;;;8.48;7.60;;;5.60;99.90;;;;;;5010427;28;20202;-73
2022/12/07 10:32:18;;;;;;;8.90;7.70;;;5.60;99.90;;;;;;5001381;28;20178;-73
2022/12/07 10:34:44;;;;;;;6.72;5.93;;;5.60;99.90;;;;;;5001941;28;20188;-72
2022/12/07 10:37:16;;;;;;;6.60;5.93;;;5.80;99.90;;;;;;5010686;28;20287;-72
2022/12/07 10:39:52;;;;;;;7.07;6.25;;;6.00;99.90;;;;;;5005545;28;20223;-72
2022/12/07 10:42:24;;;;;;;6.45;4.72;;;6.10;99.90;;;;;;5002321;28;20239;-73
2022/12/07 10:45:09;;;;;;;7.70;6.15;;;6.00;99.90;;;;;;5010681;28;20663;-73
2022/12/07 10:47:44;;;;;;;5.70;5.20;;;6.10;99.90;;;;;;5004865;28;20194;-73
2022/12/07 10:50:34;;;;;;;8.52;6.70;;;6.30;99.90;;;;;;5002214;28;20215;-74
2022/12/07 10:53:08;;;;;;;6.57;5.90;;;6.30;99.90;;;;;;5001697;28;20185;-74
2022/12/07 10:55:55;;;;;;;7.20;6.50;;;6.40;99.90;;;;;;5005852;28;20176;-72
2022/12/07 10:58:51;;;;;;;7.07;6.07;;;6.30;99.90;;;;;;4996151;28;20676;-73
2022/12/07 11:01:23;;;;;;;6.45;5.78;;;6.50;99.90;;;;;;5003399;28;20216;-73
2022/12/07 11:04:06;;;;;;;6.20;5.43;;;6.70;99.90;;;;;;5005264;28;20196;-74
2022/12/07 11:07:02;;;;;;;5.88;5.28;;;6.70;99.90;;;;;;5004169;28;20223;-73
2022/12/07 11:10:10;;;;;;;4.60;4.20;;;6.80;99.90;;;;;;5004197;28;20277;-72
2022/12/07 11:13:01;;;;;;;6.38;5.72;;;6.90;99.90;;;;;;5004262;28;20200;-72
2022/12/07 11:15:45;;;;;;;4.10;3.70;;;6.90;99.90;;;;;;5003766;28;20182;-72
2022/12/07 11:18:25;;;;;;;4.30;3.90;;;6.90;99.90;;;;;;5004840;28;20201;-72
2022/12/07 11:21:09;;;;;;;5.68;5.18;;;6.90;99.90;;;;;;5006865;28;20185;-73
2022/12/07 11:23:48;;;;;;;5.40;4.97;;;6.80;99.90;;;;;;5004170;28;20205;-72
2022/12/07 11:26:47;;;;;;;5.57;5.00;;;6.70;99.90;;;;;;5005470;28;20208;-72
2022/12/07 11:29:22;;;;;;;5.75;5.15;;;6.80;99.90;;;;;;4996224;28;20657;-73
2022/12/07 11:31:50;;;;;;;5.25;4.75;;;6.80;99.90;;;;;;5004522;28;20238;-73
2022/12/07 11:34:45;;;;;;;2.85;2.63;;;6.80;99.90;;;;;;4998237;28;20528;-74
2022/12/07 11:37:18;;;;;;;10.15;6.22;;;6.80;99.90;;;;;;4994718;28;20594;-73
2022/12/07 11:39:59;;;;;;;11.20;5.68;;;6.80;99.90;;;;;;5001925;28;20190;-74
2022/12/07 11:42:39;;;;;;;7.00;5.53;;;6.70;99.90;;;;;;5008654;28;20196;-74
2022/12/07 11:45:17;;;;;;;9.63;5.15;;;6.80;99.90;;;;;;5003642;28;20193;-74
2022/12/07 11:47:51;;;;;;;6.30;5.63;;;6.90;99.90;;;;;;5005967;28;20213;-74
2022/12/07 11:50:30;;;;;;;5.80;4.47;;;6.90;99.90;;;;;;5004138;28;20215;-74
2022/12/07 11:53:07;;;;;;;5.80;5.30;;;7.00;99.90;;;;;;4998307;28;20754;-74
2022/12/07 11:55:39;;;;;;;5.43;4.20;;;7.10;99.90;;;;;;5015982;28;20178;-74
2022/12/07 11:58:32;;;;;;;5.47;4.95;;;7.10;99.90;;;;;;4996290;28;20565;-74
2022/12/07 12:01:22;;;;;;;5.05;4.55;;;6.90;99.90;;;;;;5001993;28;20221;-76
2022/12/07 12:03:51;;;;;;;5.20;4.70;;;6.90;99.90;;;;;;4990995;28;20571;-74
2022/12/07 12:06:17;;;;;;;8.40;3.60;;;6.90;99.90;;;;;;4996247;28;20213;-74
2022/12/07 12:08:49;;;;;;;4.13;3.45;;;6.80;99.90;;;;;;5001989;28;20217;-73
2022/12/07 12:11:27;;;;;;;5.45;4.68;;;6.90;99.90;;;;;;4997718;28;20207;-73
2022/12/07 12:14:04;;;;;;;4.57;4.18;;;6.80;99.90;;;;;;4996592;28;20177;-73
2022/12/07 12:16:41;;;;;;;4.97;4.57;;;6.70;99.90;;;;;;4996014;28;20181;-73
2022/12/07 12:19:16;;;;;;;5.45;4.95;;;6.60;99.90;;;;;;4998480;28;20193;-73
2022/12/07 12:21:43;;;;;;;5.40;4.32;;;6.50;99.90;;;;;;4998443;28;20697;-73
2022/12/07 12:24:21;;;;;;;5.07;4.55;;;6.60;99.90;;;;;;4993438;28;20228;-73
2022/12/07 12:27:06;;;;;;;5.25;4.75;;;6.30;99.90;;;;;;5002070;28;20177;-73
2022/12/07 12:29:41;;;;;;;5.72;5.10;;;6.20;99.90;;;;;;4997322;28;20684;-73
2022/12/07 12:32:19;;;;;;;4.80;4.38;;;6.20;99.90;;;;;;4995774;28;20593;-73
2022/12/07 12:34:48;;;;;;;5.28;4.80;;;6.30;99.90;;;;;;5002490;28;20260;-73
2022/12/07 12:37:33;;;;;;;5.22;4.55;;;6.30;99.90;;;;;;5013633;28;20256;-73
2022/12/07 12:40:14;;;;;;;6.57;5.03;;;6.40;99.90;;;;;;4997227;28;20186;-74
2022/12/07 12:42:58;;;;;;;6.50;5.32;;;6.30;99.90;;;;;;4996511;28;20178;-74
2022/12/07 12:45:25;;;;;;;5.45;3.88;;;6.20;99.90;;;;;;4997421;28;20717;-73
2022/12/07 12:47:57;;;;;;;8.93;5.10;;;6.20;99.90;;;;;;4998364;28;20243;-73
2022/12/07 12:50:35;;;;;;;12.77;5.50;;;6.10;99.90;;;;;;5002753;28;20201;-73
2022/12/07 12:53:04;;;;;;;6.75;5.43;;;6.00;99.90;;;;;;5006451;28;20187;-73
2022/12/07 12:55:41;;;;;;;7.32;5.75;;;5.90;99.90;;;;;;5009434;28;20209;-74
2022/12/07 12:58:19;;;;;;;4.95;4.20;;;5.80;99.90;;;;;;5006883;28;20215;-74
2022/12/07 13:00:46;;;;;;;5.65;5.05;;;5.70;99.90;;;;;;5011789;28;20196;-73
2022/12/07 13:03:29;;;;;;;6.05;5.45;;;5.50;99.90;;;;;;5006442;28;20552;-73
2022/12/07 13:06:27;;;;;;;6.80;6.03;;;5.50;99.90;;;;;;5014089;28;20205;-74
2022/12/07 13:08:57;;;;;;;6.38;5.35;;;5.60;99.90;;;;;;4968562;28;20565;-74
2022/12/07 13:11:29;;;;;;;7.10;6.40;;;5.50;99.90;;;;;;5001523;28;20216;-74
2022/12/07 13:14:33;;;;;;;8.35;6.10;;;5.60;99.90;;;;;;5001771;28;20196;-74
2022/12/07 13:16:59;;;;;;;5.85;5.25;;;5.60;99.90;;;;;;4997835;28;20248;-74